createdAt,value
2019-04-22T00:02:08.990Z,99.90
2019-04-22T00:04:49.754Z,99.90
2019-04-22T00:07:48.715Z,99.90
2019-04-22T00:10:24.243Z,99.90
2019-04-22T00:12:58.238Z,99.90
2019-04-22T00:15:15.225Z,99.90
2019-04-22T00:18:13.223Z,99.90
2019-04-22T00:20:44.066Z,99.90
2019-04-22T00:23:15.323Z,99.90
2019-04-22T00:25:53.893Z,99.90
2019-04-22T00:28:19.894Z,99.90
2019-04-22T00:30:41.470Z,99.90
2019-04-22T00:33:13.066Z,99.90
2019-04-22T00:35:52.619Z,99.90
2019-04-22T00:43:21.185Z,99.90
2019-04-22T00:45:54.333Z,99.90
2019-04-22T00:48:20.610Z,99.90
2019-04-22T00:51:01.583Z,99.90
2019-04-22T00:53:30.102Z,99.90
2019-04-22T00:56:00.524Z,99.90
2019-04-22T00:59:06.788Z,99.90
2019-04-22T01:03:57.034Z,99.90
2019-04-22T01:09:13.635Z,99.90
2019-04-22T01:11:37.602Z,99.90
2019-04-22T01:14:37.560Z,99.90
2019-04-22T01:17:02.980Z,99.90
2019-04-22T01:19:38.627Z,99.90
2019-04-22T01:22:06.818Z,99.90
2019-04-22T01:24:51.066Z,99.90
2019-04-22T01:27:20.817Z,99.90
2019-04-22T01:29:46.826Z,99.90
2019-04-22T01:32:13.180Z,99.90
2019-04-22T01:34:51.423Z,99.90
2019-04-22T01:37:27.189Z,99.90
2019-04-22T01:40:04.721Z,99.90
2019-04-22T01:42:35.709Z,99.90
2019-04-22T01:44:56.780Z,99.90
2019-04-22T01:50:06.312Z,99.90
2019-04-22T01:52:32.556Z,99.90
2019-04-22T01:55:10.500Z,99.90
2019-04-22T01:57:28.736Z,99.90
2019-04-22T01:59:57.639Z,99.90
2019-04-22T02:02:39.978Z,99.90
2019-04-22T02:05:14.005Z,99.90
2019-04-22T02:07:31.955Z,99.90
2019-04-22T02:10:05.561Z,99.90
2019-04-22T02:15:05.678Z,99.90
2019-04-22T02:17:38.277Z,99.90
2019-04-22T02:23:17.616Z,99.90
2019-04-22T02:25:32.363Z,99.90
2019-04-22T02:27:54.628Z,99.90
2019-04-22T02:30:38.677Z,99.90
2019-04-22T02:33:25.518Z,99.90
2019-04-22T02:35:52.245Z,99.90
2019-04-22T02:38:09.883Z,99.90
2019-04-22T02:40:50.707Z,99.90
2019-04-22T02:43:12.528Z,99.90
2019-04-22T02:45:42.869Z,99.90
2019-04-22T02:48:10.743Z,99.90
2019-04-22T02:50:36.694Z,99.90
2019-04-22T02:53:19.050Z,99.90
2019-04-22T02:55:40.820Z,99.90
2019-04-22T02:58:14.153Z,99.90
2019-04-22T03:00:54.108Z,99.90
2019-04-22T03:03:21.061Z,99.90
2019-04-22T03:08:23.580Z,99.90
2019-04-22T03:13:21.704Z,99.90
2019-04-22T03:16:28.831Z,99.90
2019-04-22T03:21:24.048Z,99.90
2019-04-22T03:24:12.153Z,99.90
2019-04-22T03:28:54.892Z,99.90
2019-04-22T03:41:47.782Z,99.90
2019-04-22T03:46:43.896Z,99.90
2019-04-22T03:50:04.586Z,99.90
2019-04-22T03:51:49.841Z,99.90
2019-04-22T03:54:11.123Z,99.90
2019-04-22T03:57:10.449Z,99.90
2019-04-22T03:59:28.639Z,99.90
2019-04-22T04:01:44.184Z,99.90
2019-04-22T04:04:19.038Z,99.90
2019-04-22T04:06:56.986Z,99.90
2019-04-22T04:09:12.783Z,99.90
2019-04-22T04:11:52.085Z,99.90
2019-04-22T04:14:12.319Z,99.90
2019-04-22T04:17:08.779Z,99.90
2019-04-22T04:20:04.370Z,99.90
2019-04-22T04:22:32.284Z,99.90
2019-04-22T04:27:41.384Z,99.90
2019-04-22T04:35:03.131Z,99.90
2019-04-22T04:39:53.132Z,99.90
2019-04-22T04:47:39.198Z,99.90
2019-04-22T04:49:52.322Z,99.90
2019-04-22T04:52:35.253Z,99.90
2019-04-22T04:57:23.962Z,99.90
2019-04-22T05:00:32.622Z,99.90
2019-04-22T05:05:07.696Z,99.90
2019-04-22T05:07:27.923Z,99.90
2019-04-22T05:09:54.866Z,99.90
2019-04-22T05:12:34.294Z,99.90
2019-04-22T05:19:47.785Z,99.90
2019-04-22T05:22:23.151Z,99.90
2019-04-22T05:24:53.336Z,99.90
2019-04-22T05:27:40.024Z,99.90
2019-04-22T05:32:43.031Z,99.90
2019-04-22T05:35:28.204Z,99.90
2019-04-22T05:38:07.668Z,99.90
2019-04-22T05:40:48.272Z,99.90
2019-04-22T05:43:34.330Z,99.90
2019-04-22T05:46:04.152Z,99.90
2019-04-22T05:48:41.501Z,99.90
2019-04-22T05:51:32.531Z,99.90
2019-04-22T05:54:17.253Z,99.90
2019-04-22T05:56:39.469Z,99.90
2019-04-22T05:59:34.437Z,99.90
2019-04-22T06:04:31.024Z,99.90
2019-04-22T06:07:02.074Z,99.90
2019-04-22T06:09:30.618Z,99.90
2019-04-22T06:11:58.924Z,99.90
2019-04-22T06:14:31.072Z,99.90
2019-04-22T06:17:10.666Z,99.90
2019-04-22T06:19:44.622Z,99.90
2019-04-22T06:22:23.885Z,99.90
2019-04-22T06:24:42.032Z,99.90
2019-04-22T06:27:22.010Z,99.90
2019-04-22T06:29:41.374Z,99.90
2019-04-22T06:34:48.562Z,99.90
2019-04-22T06:37:17.544Z,99.90
2019-04-22T06:39:45.130Z,99.90
2019-04-22T06:42:21.815Z,99.90
2019-04-22T06:44:51.610Z,99.90
2019-04-22T06:47:27.399Z,99.90
2019-04-22T06:49:50.766Z,99.90
2019-04-22T06:52:17.993Z,99.90
2019-04-22T06:54:49.051Z,99.90
2019-04-22T06:57:24.261Z,99.90
2019-04-22T06:59:51.585Z,99.90
2019-04-22T07:02:24.042Z,99.90
2019-04-22T07:04:49.487Z,99.90
2019-04-22T07:07:20.051Z,99.90
2019-04-22T07:12:24.451Z,99.80
2019-04-22T07:14:50.527Z,99.10
2019-04-22T07:17:22.132Z,98.90
2019-04-22T07:19:53.293Z,98.80
2019-04-22T07:22:43.595Z,98.40
2019-04-22T07:25:10.441Z,98.40
2019-04-22T07:27:40.503Z,98.90
2019-04-22T07:30:15.458Z,98.10
2019-04-22T07:35:14.112Z,97.40
2019-04-22T07:37:45.265Z,96.90
2019-04-22T07:40:10.213Z,96.40
2019-04-22T07:42:46.020Z,96.10
2019-04-22T07:45:15.504Z,96.50
2019-04-22T07:47:44.407Z,95.90
2019-04-22T07:50:34.285Z,96.10
2019-04-22T07:53:00.931Z,95.70
2019-04-22T07:55:13.431Z,95.60
2019-04-22T07:57:50.721Z,95.40
2019-04-22T08:00:19.063Z,94.90
2019-04-22T08:02:53.332Z,95.20
2019-04-22T08:05:20.945Z,94.10
2019-04-22T08:07:52.389Z,93.50
2019-04-22T08:10:24.404Z,93.40
2019-04-22T08:15:19.909Z,93.50
2019-04-22T08:17:54.743Z,93.40
2019-04-22T08:20:22.609Z,92.90
2019-04-22T08:22:52.196Z,93.20
2019-04-22T08:25:16.434Z,93.50
2019-04-22T08:27:50.735Z,93.20
2019-04-22T08:30:23.984Z,92.60
2019-04-22T08:35:35.660Z,93.00
2019-04-22T08:40:34.712Z,93.80
2019-04-22T08:47:54.863Z,93.60
2019-04-22T08:50:33.730Z,93.80
2019-04-22T08:53:12.505Z,92.00
2019-04-22T08:55:40.461Z,90.60
2019-04-22T08:58:25.546Z,90.30
2019-04-22T09:00:43.928Z,87.70
2019-04-22T09:03:23.969Z,86.90
2019-04-22T09:08:34.441Z,83.20
2019-04-22T09:10:58.496Z,82.10
2019-04-22T09:13:30.172Z,82.20
2019-04-22T09:15:55.552Z,81.30
2019-04-22T09:18:29.859Z,82.40
2019-04-22T09:21:08.935Z,80.50
2019-04-22T09:23:30.420Z,80.70
2019-04-22T09:26:05.016Z,79.90
2019-04-22T09:28:37.826Z,79.20
2019-04-22T09:33:32.244Z,78.90
2019-04-22T09:36:09.363Z,77.80
2019-04-22T09:38:49.220Z,77.40
2019-04-22T09:41:27.135Z,77.60
2019-04-22T09:46:32.861Z,76.30
2019-04-22T09:49:19.316Z,75.70
2019-04-22T09:51:44.910Z,76.20
2019-04-22T09:54:26.562Z,75.30
2019-04-22T09:56:47.486Z,75.70
2019-04-22T09:59:13.837Z,76.10
2019-04-22T10:01:51.316Z,74.30
2019-04-22T10:04:12.716Z,73.80
2019-04-22T10:06:40.375Z,74.00
2019-04-22T10:09:34.319Z,74.80
2019-04-22T10:11:47.061Z,73.10
2019-04-22T10:14:18.974Z,72.30
2019-04-22T10:17:09.374Z,73.30
2019-04-22T10:19:38.950Z,73.30
2019-04-22T10:22:14.899Z,71.70
2019-04-22T10:24:40.373Z,71.60
2019-04-22T10:27:08.056Z,71.90
2019-04-22T10:30:10.834Z,70.70
2019-04-22T10:32:29.170Z,71.10
2019-04-22T10:34:43.587Z,69.20
2019-04-22T10:37:11.268Z,70.00
2019-04-22T10:39:45.834Z,70.10
2019-04-22T10:42:09.122Z,69.30
2019-04-22T10:44:39.141Z,69.10
2019-04-22T10:47:07.892Z,69.50
2019-04-22T10:49:36.449Z,68.30
2019-04-22T10:52:06.627Z,68.10
2019-04-22T10:54:35.751Z,69.80
2019-04-22T10:57:04.683Z,68.60
2019-04-22T10:59:34.373Z,68.90
2019-04-22T11:02:03.431Z,68.00
2019-04-22T11:04:32.285Z,67.60
2019-04-22T11:07:05.499Z,66.50
2019-04-22T11:09:31.473Z,65.40
2019-04-22T11:12:06.427Z,65.90
2019-04-22T11:14:30.839Z,65.30
2019-04-22T11:17:02.232Z,65.50
2019-04-22T11:19:29.933Z,65.50
2019-04-22T11:22:07.864Z,64.60
2019-04-22T11:24:28.829Z,63.10
2019-04-22T11:26:58.862Z,63.40
2019-04-22T11:29:27.899Z,63.40
2019-04-22T11:31:56.835Z,62.20
2019-04-22T11:34:26.828Z,62.10
2019-04-22T11:36:56.822Z,63.60
2019-04-22T11:39:25.998Z,62.00
2019-04-22T11:41:58.352Z,61.50
2019-04-22T11:44:27.643Z,60.20
2019-04-22T11:46:57.140Z,60.40
2019-04-22T11:49:26.085Z,58.50
2019-04-22T11:51:56.001Z,58.30
2019-04-22T11:54:25.143Z,58.70
2019-04-22T11:56:54.887Z,59.20
2019-04-22T11:59:24.726Z,57.80
2019-04-22T12:01:54.940Z,57.10
2019-04-22T12:04:23.868Z,57.70
2019-04-22T12:06:53.817Z,56.40
2019-04-22T12:09:23.833Z,55.30
2019-04-22T12:11:53.900Z,53.30
2019-04-22T12:14:22.640Z,53.80
2019-04-22T12:16:53.180Z,52.20
2019-04-22T12:19:23.210Z,52.40
2019-04-22T12:21:53.229Z,49.40
2019-04-22T12:24:23.517Z,48.20
2019-04-22T12:26:52.727Z,50.50
2019-04-22T12:29:22.740Z,49.80
2019-04-22T12:31:51.525Z,49.00
2019-04-22T12:34:21.449Z,49.20
2019-04-22T12:36:51.097Z,50.00
2019-04-22T12:39:21.132Z,48.90
2019-04-22T12:41:50.234Z,49.90
2019-04-22T12:44:20.142Z,49.90
2019-04-22T12:46:50.192Z,50.30
2019-04-22T12:49:20.279Z,50.70
2019-04-22T12:51:49.283Z,51.10
2019-04-22T12:54:19.332Z,50.20
2019-04-22T12:56:51.262Z,49.20
2019-04-22T12:59:19.343Z,48.10
2019-04-22T13:01:48.909Z,49.30
2019-04-22T13:04:19.545Z,48.90
2019-04-22T13:06:48.115Z,49.50
2019-04-22T13:09:19.105Z,49.70
2019-04-22T13:11:48.849Z,48.60
2019-04-22T13:14:19.064Z,47.70
2019-04-22T13:16:49.084Z,48.00
2019-04-22T13:19:20.586Z,48.30
2019-04-22T13:21:48.958Z,48.30
2019-04-22T13:24:19.898Z,47.30
2019-04-22T13:26:48.799Z,46.50
2019-04-22T13:29:19.131Z,47.50
2019-04-22T13:31:48.932Z,47.90
2019-04-22T13:34:26.238Z,48.80
2019-04-22T13:37:07.503Z,47.90
2019-04-22T13:39:36.753Z,48.20
2019-04-22T13:42:09.898Z,48.20
2019-04-22T13:44:35.958Z,48.10
2019-04-22T13:47:23.941Z,49.20
2019-04-22T13:50:05.689Z,47.20
2019-04-22T13:55:00.330Z,48.20
2019-04-22T13:57:29.438Z,45.80
2019-04-22T13:59:43.002Z,47.80
2019-04-22T14:02:22.323Z,47.20
2019-04-22T14:04:52.822Z,47.70
2019-04-22T14:07:21.377Z,47.30
2019-04-22T14:09:50.670Z,47.10
2019-04-22T14:12:20.362Z,48.20
2019-04-22T14:14:51.204Z,48.60
2019-04-22T14:17:20.936Z,48.30
2019-04-22T14:19:50.860Z,48.30
2019-04-22T14:22:20.017Z,48.10
2019-04-22T14:24:48.864Z,47.80
2019-04-22T14:27:27.915Z,48.00
2019-04-22T14:29:49.306Z,48.30
2019-04-22T14:32:23.669Z,48.00
2019-04-22T14:34:49.088Z,47.70
2019-04-22T14:37:18.606Z,47.60
2019-04-22T14:39:48.186Z,47.90
2019-04-22T14:42:34.368Z,47.20
2019-04-22T14:47:39.420Z,47.30
2019-04-22T14:50:16.171Z,46.70
2019-04-22T14:52:42.500Z,46.80
2019-04-22T14:54:59.466Z,46.80
2019-04-22T14:57:19.245Z,45.90
2019-04-22T14:59:48.303Z,46.40
2019-04-22T15:02:19.619Z,46.80
2019-04-22T15:04:49.930Z,47.00
2019-04-22T15:07:19.204Z,46.50
2019-04-22T15:09:48.106Z,48.30
2019-04-22T15:12:27.764Z,46.80
2019-04-22T15:14:47.918Z,47.20
2019-04-22T15:17:34.903Z,48.60
2019-04-22T15:20:23.780Z,46.70
2019-04-22T15:22:52.769Z,47.00
2019-04-22T15:25:22.771Z,46.70
2019-04-22T15:27:51.496Z,47.40
2019-04-22T15:30:21.448Z,47.10
2019-04-22T15:32:51.506Z,47.90
2019-04-22T15:35:20.275Z,47.30
2019-04-22T15:37:49.039Z,47.40
2019-04-22T15:40:18.517Z,47.60
2019-04-22T15:42:48.838Z,47.50
2019-04-22T15:45:18.805Z,47.60
2019-04-22T15:47:48.262Z,46.80
2019-04-22T15:50:17.141Z,47.00
2019-04-22T15:52:51.310Z,47.30
2019-04-22T15:55:18.757Z,47.90
2019-04-22T15:57:47.922Z,48.10
2019-04-22T16:00:29.771Z,47.70
2019-04-22T16:02:47.722Z,48.00
2019-04-22T16:05:17.112Z,48.30
2019-04-22T16:07:45.960Z,48.40
2019-04-22T16:10:15.750Z,48.00
2019-04-22T16:12:56.240Z,47.70
2019-04-22T16:15:16.165Z,48.70
2019-04-22T16:17:44.892Z,48.70
2019-04-22T16:20:15.077Z,48.10
2019-04-22T16:23:03.484Z,48.70
2019-04-22T16:25:42.982Z,49.00
2019-04-22T16:28:13.115Z,49.00
2019-04-22T16:30:43.505Z,49.50
2019-04-22T16:33:15.064Z,50.10
2019-04-22T16:36:04.654Z,50.70
2019-04-22T16:38:33.459Z,51.20
2019-04-22T16:41:02.964Z,51.60
2019-04-22T16:43:32.872Z,51.80
2019-04-22T16:46:01.684Z,52.20
2019-04-22T16:48:31.512Z,52.30
2019-04-22T16:51:00.266Z,52.40
2019-04-22T16:53:29.458Z,52.20
2019-04-22T16:55:59.108Z,52.40
2019-04-22T16:58:28.613Z,52.50
2019-04-22T17:00:58.776Z,52.90
2019-04-22T17:03:46.812Z,53.10
2019-04-22T17:06:17.456Z,53.20
2019-04-22T17:08:46.683Z,53.60
2019-04-22T17:11:15.946Z,53.80
2019-04-22T17:14:05.586Z,54.10
2019-04-22T17:16:34.607Z,54.20
2019-04-22T17:19:04.531Z,54.00
2019-04-22T17:21:35.239Z,55.00
2019-04-22T17:24:05.578Z,54.80
2019-04-22T17:26:34.643Z,55.10
2019-04-22T17:29:06.341Z,55.50
2019-04-22T17:31:34.637Z,55.60
2019-04-22T17:34:04.784Z,55.70
2019-04-22T17:36:34.122Z,56.00
2019-04-22T17:39:21.325Z,55.80
2019-04-22T17:41:53.436Z,55.90
2019-04-22T17:44:37.700Z,55.90
2019-04-22T17:46:56.093Z,55.30
2019-04-22T17:49:46.011Z,55.70
2019-04-22T17:52:21.582Z,55.00
2019-04-22T17:54:49.242Z,54.60
2019-04-22T17:57:22.332Z,54.10
2019-04-22T17:59:51.933Z,54.10
2019-04-22T18:02:19.287Z,54.10
2019-04-22T18:04:40.399Z,53.80
2019-04-22T18:07:31.190Z,53.60
2019-04-22T18:10:16.468Z,53.50
2019-04-22T18:12:34.010Z,53.30
2019-04-22T18:15:10.002Z,53.40
2019-04-22T18:17:32.498Z,53.70
2019-04-22T18:19:51.883Z,53.80
2019-04-22T18:22:19.740Z,54.20
2019-04-22T18:24:50.088Z,54.10
2019-04-22T18:27:42.994Z,54.20
2019-04-22T18:29:51.960Z,54.40
2019-04-22T18:32:18.118Z,55.30
2019-04-22T18:34:48.011Z,55.10
2019-04-22T18:37:19.954Z,55.40
2019-04-22T18:39:58.043Z,55.60
2019-04-22T18:42:23.859Z,55.80
2019-04-22T18:45:00.171Z,56.30
2019-04-22T18:47:28.150Z,56.60
2019-04-22T18:49:56.511Z,57.30
2019-04-22T18:52:47.969Z,57.00
2019-04-22T18:55:17.668Z,57.00
2019-04-22T18:58:01.056Z,57.60
2019-04-22T19:00:16.251Z,57.10
2019-04-22T19:02:54.071Z,58.40
2019-04-22T19:05:29.643Z,57.70
2019-04-22T19:08:13.693Z,58.20
2019-04-22T19:10:51.757Z,58.10
2019-04-22T19:13:38.835Z,57.00
2019-04-22T19:15:42.662Z,59.70
2019-04-22T19:18:18.982Z,57.80
2019-04-22T19:20:49.822Z,57.30
2019-04-22T19:23:20.891Z,57.10
2019-04-22T19:25:41.838Z,58.90
2019-04-22T19:28:25.133Z,59.50
2019-04-22T19:30:50.196Z,58.20
2019-04-22T19:33:19.843Z,58.50
2019-04-22T19:35:40.108Z,57.40
2019-04-22T19:38:08.316Z,57.00
2019-04-22T19:40:55.435Z,57.30
2019-04-22T19:43:20.895Z,56.80
2019-04-22T19:45:45.987Z,56.80
2019-04-22T19:48:27.103Z,57.20
2019-04-22T19:51:34.037Z,57.00
2019-04-22T19:53:40.683Z,57.00
2019-04-22T19:56:03.823Z,61.50
2019-04-22T19:58:38.454Z,59.40
2019-04-22T20:01:30.929Z,60.10
2019-04-22T20:04:19.707Z,58.70
2019-04-22T20:06:47.793Z,58.40
2019-04-22T20:09:26.977Z,61.90
2019-04-22T20:11:49.571Z,59.80
2019-04-22T20:14:21.920Z,63.10
2019-04-22T20:16:46.897Z,63.60
2019-04-22T20:19:25.368Z,60.80
2019-04-22T20:21:51.533Z,61.30
2019-04-22T20:24:11.445Z,62.00
2019-04-22T20:26:59.410Z,61.10
2019-04-22T20:29:27.090Z,66.00
2019-04-22T20:31:54.615Z,61.50
2019-04-22T20:34:23.964Z,61.60
2019-04-22T20:37:03.699Z,60.90
2019-04-22T20:39:28.801Z,60.20
2019-04-22T20:41:49.184Z,60.50
2019-04-22T20:44:29.250Z,59.90
2019-04-22T20:46:52.128Z,59.70
2019-04-22T20:49:25.618Z,59.60
2019-04-22T20:52:13.683Z,59.70
2019-04-22T20:54:22.993Z,59.70
2019-04-22T20:56:51.901Z,59.90
2019-04-22T20:59:25.715Z,60.30
2019-04-22T21:01:56.435Z,60.80
2019-04-22T21:04:19.604Z,60.60
2019-04-22T21:06:54.351Z,60.30
2019-04-22T21:09:27.260Z,60.70
2019-04-22T21:11:51.936Z,60.90
2019-04-22T21:14:24.618Z,61.10
2019-04-22T21:17:00.588Z,61.40
2019-04-22T21:19:38.193Z,61.20
2019-04-22T21:22:03.466Z,61.00
2019-04-22T21:24:29.099Z,61.20
2019-04-22T21:27:08.882Z,61.00
2019-04-22T21:29:29.477Z,61.10
2019-04-22T21:32:01.467Z,61.10
2019-04-22T21:34:31.675Z,60.80
2019-04-22T21:37:12.216Z,61.10
2019-04-22T21:39:33.810Z,61.30
2019-04-22T21:41:58.908Z,61.70
2019-04-22T21:44:32.656Z,61.70
2019-04-22T21:47:13.018Z,61.60
2019-04-22T21:49:37.208Z,61.90
2019-04-22T21:52:08.032Z,62.50
2019-04-22T21:54:42.957Z,62.20
2019-04-22T21:59:44.829Z,62.70
2019-04-22T22:02:12.363Z,63.00
2019-04-22T22:04:38.439Z,62.80
2019-04-22T22:06:59.839Z,63.40
2019-04-22T22:09:44.010Z,63.30
2019-04-22T22:12:08.535Z,63.70
2019-04-22T22:14:46.393Z,63.90
2019-04-22T22:17:14.209Z,64.20
2019-04-22T22:19:43.565Z,64.40
2019-04-22T22:22:30.172Z,64.90
2019-04-22T22:24:43.953Z,65.10
2019-04-22T22:27:14.292Z,65.20
2019-04-22T22:32:16.597Z,65.90
2019-04-22T22:34:46.329Z,66.40
2019-04-22T22:37:06.452Z,66.60
2019-04-22T22:39:36.638Z,66.90
2019-04-22T22:41:57.556Z,67.40
2019-04-22T22:44:33.474Z,67.80
2019-04-22T22:47:16.064Z,68.30
2019-04-22T22:49:50.304Z,68.90
2019-04-22T22:52:45.025Z,69.40
2019-04-22T22:54:46.456Z,69.80
2019-04-22T22:57:22.054Z,70.20
2019-04-22T22:59:50.179Z,70.50
2019-04-22T23:02:15.722Z,70.90
2019-04-22T23:04:54.513Z,71.30
2019-04-22T23:07:22.567Z,71.60
2019-04-22T23:09:48.781Z,71.80
2019-04-22T23:12:32.382Z,72.00
2019-04-22T23:14:52.797Z,72.50
2019-04-22T23:17:07.766Z,72.90
2019-04-22T23:19:33.673Z,73.20
2019-04-22T23:22:10.407Z,73.60
2019-04-22T23:24:52.335Z,74.00
2019-04-22T23:27:44.560Z,74.70
2019-04-22T23:30:17.018Z,74.70
2019-04-22T23:32:49.958Z,75.20
2019-04-22T23:35:42.794Z,75.60
2019-04-22T23:38:13.783Z,75.80
2019-04-22T23:40:42.794Z,76.10
2019-04-22T23:43:26.371Z,76.40
2019-04-22T23:46:02.668Z,77.00
2019-04-22T23:48:27.256Z,77.10
2019-04-22T23:51:07.552Z,77.70
2019-04-22T23:53:57.563Z,78.00
2019-04-22T23:56:07.950Z,78.70
